Time;durP1;ratioP1;P1;durP2;ratioP2;P2;SDS_P1;SDS_P2;PMS_P1;PMS_P2;Temp;Humidity;BMP_temperature;BMP_pressure;BME280_temperature;BME280_humidity;BME280_pressure;Samples;Min_cycle;Max_cycle;Signal;HPM_P1;HPM_P2
2022/10/12 00:00:50;;;;;;;44.17;28.57;;;;;;;;;;5157189;27;20456;-71
2022/10/12 00:03:18;;;;;;;43.30;28.33;;;;;;;;;;5157605;27;20470;-71
2022/10/12 00:05:45;;;;;;;46.27;30.97;;;;;;;;;;5156683;27;20467;-71
2022/10/12 00:08:12;;;;;;;41.70;27.87;;;;;;;;;;5157059;27;20941;-71
2022/10/12 00:10:41;;;;;;;42.17;27.43;;;;;;;;;;5157108;27;20997;-71
2022/10/12 00:13:10;;;;;;;57.53;30.90;;;;;;;;;;5157137;27;20451;-71
2022/10/12 00:15:37;;;;;;;58.43;29.30;;;;;;;;;;5156173;27;20474;-71
2022/10/12 00:18:05;;;;;;;48.60;28.40;;;;;;;;;;5157060;27;20864;-71
2022/10/12 00:20:32;;;;;;;31.53;22.60;;;;;;;;;;5156785;27;20458;-71
2022/10/12 00:22:59;;;;;;;30.10;21.60;;;;;;;;;;5157001;27;20546;-71
2022/10/12 00:25:26;;;;;;;33.57;22.23;;;;;;;;;;5156401;27;20836;-71
2022/10/12 00:27:53;;;;;;;39.63;23.13;;;;;;;;;;5156894;27;20447;-71
2022/10/12 00:30:22;;;;;;;37.10;20.33;;;;;;;;;;5155881;27;20483;-71
2022/10/12 00:32:49;;;;;;;29.87;19.10;;;;;;;;;;5156480;27;20443;-71
2022/10/12 00:35:16;;;;;;;30.20;20.60;;;;;;;;;;5155691;27;20471;-71
2022/10/12 00:37:43;;;;;;;29.60;20.63;;;;;;;;;;5156897;27;20432;-71
2022/10/12 00:40:11;;;;;;;29.70;20.67;;;;;;;;;;5156907;27;20531;-71
2022/10/12 00:42:38;;;;;;;29.73;19.27;;;;;;;;;;5153925;27;20451;-71
2022/10/12 00:45:06;;;;;;;31.10;19.23;;;;;;;;;;5155900;27;20474;-71
2022/10/12 00:47:36;;;;;;;35.43;18.83;;;;;;;;;;5156496;27;20451;-71
2022/10/12 00:50:06;;;;;;;29.07;18.37;;;;;;;;;;5156495;27;21052;-71
2022/10/12 00:52:38;;;;;;;28.20;19.07;;;;;;;;;;5156260;27;20941;-71
2022/10/12 00:55:06;;;;;;;27.70;17.63;;;;;;;;;;5155679;27;20988;-71
2022/10/12 00:57:33;;;;;;;27.03;17.07;;;;;;;;;;5156180;27;20454;-71
2022/10/12 01:00:02;;;;;;;27.80;17.10;;;;;;;;;;5156096;27;20444;-71
2022/10/12 01:02:30;;;;;;;21.63;16.73;;;;;;;;;;5156012;27;20448;-71
2022/10/12 01:04:59;;;;;;;28.50;17.23;;;;;;;;;;5155620;27;20520;-71
2022/10/12 01:07:26;;;;;;;27.80;19.80;;;;;;;;;;5156336;27;20454;-71
2022/10/12 01:09:53;;;;;;;31.97;18.40;;;;;;;;;;5156213;27;20491;-71
2022/10/12 01:12:21;;;;;;;27.70;20.27;;;;;;;;;;5155811;27;20956;-71
2022/10/12 01:14:48;;;;;;;26.57;19.07;;;;;;;;;;5155110;27;20466;-70
2022/10/12 01:17:21;;;;;;;28.53;19.40;;;;;;;;;;5155704;27;20447;-70
2022/10/12 01:19:59;;;;;;;32.40;21.20;;;;;;;;;;5156187;27;20428;-71
2022/10/12 01:22:31;;;;;;;35.53;20.30;;;;;;;;;;5156156;27;20436;-71
2022/10/12 01:25:02;;;;;;;27.73;20.87;;;;;;;;;;5155056;27;20471;-71
2022/10/12 01:27:34;;;;;;;32.67;21.40;;;;;;;;;;5155821;27;20440;-71
2022/10/12 01:30:13;;;;;;;33.87;20.43;;;;;;;;;;5155800;27;20494;-71
2022/10/12 01:32:45;;;;;;;33.73;19.97;;;;;;;;;;5155396;27;20444;-71
2022/10/12 01:35:17;;;;;;;36.60;20.60;;;;;;;;;;5154949;27;20464;-71
2022/10/12 01:37:49;;;;;;;30.93;20.80;;;;;;;;;;5155369;27;20466;-71
2022/10/12 01:40:19;;;;;;;33.00;22.77;;;;;;;;;;5155309;27;20488;-71
2022/10/12 01:42:47;;;;;;;31.87;20.70;;;;;;;;;;5151651;27;20451;-71
2022/10/12 01:45:17;;;;;;;30.47;20.90;;;;;;;;;;5154626;27;20973;-71
2022/10/12 01:47:47;;;;;;;35.77;21.67;;;;;;;;;;5155008;27;20443;-71
2022/10/12 01:50:15;;;;;;;37.47;20.43;;;;;;;;;;5155273;27;20483;-71
2022/10/12 01:52:45;;;;;;;32.47;20.70;;;;;;;;;;5154984;27;20966;-71
2022/10/12 01:55:18;;;;;;;32.57;21.80;;;;;;;;;;5154546;27;20493;-71
2022/10/12 01:57:54;;;;;;;33.33;22.73;;;;;;;;;;5154945;27;20432;-71
2022/10/12 02:00:22;;;;;;;34.63;21.37;;;;;;;;;;5155159;27;20815;-71
2022/10/12 02:02:56;;;;;;;39.87;22.67;;;;;;;;;;5154959;27;20455;-71
2022/10/12 02:05:27;;;;;;;38.27;20.97;;;;;;;;;;5154216;27;20833;-71
2022/10/12 02:07:58;;;;;;;28.00;18.87;;;;;;;;;;5154948;27;20452;-71
2022/10/12 02:10:27;;;;;;;33.33;21.40;;;;;;;;;;5155185;27;20474;-71
2022/10/12 02:12:55;;;;;;;26.97;18.80;;;;;;;;;;5154566;27;20970;-70
2022/10/12 02:15:26;;;;;;;30.53;19.93;;;;;;;;;;5153714;27;20469;-71
2022/10/12 02:17:53;;;;;;;30.00;19.63;;;;;;;;;;5154875;27;20454;-71
2022/10/12 02:20:21;;;;;;;29.63;18.87;;;;;;;;;;5154743;27;20963;-71
2022/10/12 02:22:49;;;;;;;31.73;19.07;;;;;;;;;;5154673;27;20447;-71
2022/10/12 02:25:19;;;;;;;29.63;17.60;;;;;;;;;;5154105;27;20466;-71
2022/10/12 02:27:48;;;;;;;27.50;18.10;;;;;;;;;;5154869;27;20804;-71
2022/10/12 02:30:15;;;;;;;33.93;17.80;;;;;;;;;;5154660;27;21008;-71
2022/10/12 02:32:48;;;;;;;31.87;17.87;;;;;;;;;;5155074;27;20450;-70
2022/10/12 02:35:18;;;;;;;23.13;16.80;;;;;;;;;;5154177;27;20984;-71
2022/10/12 02:37:47;;;;;;;25.43;16.87;;;;;;;;;;5154649;27;20439;-71
2022/10/12 02:40:17;;;;;;;32.63;17.70;;;;;;;;;;5154314;27;20792;-70
2022/10/12 02:42:47;;;;;;;23.73;16.80;;;;;;;;;;5152551;27;20452;-70
2022/10/12 02:45:15;;;;;;;27.83;17.73;;;;;;;;;;5153782;27;20980;-71
2022/10/12 02:47:45;;;;;;;22.77;15.50;;;;;;;;;;5154197;27;20454;-71
2022/10/12 02:50:13;;;;;;;34.10;19.10;;;;;;;;;;5154440;27;20444;-71
2022/10/12 02:52:40;;;;;;;27.17;17.00;;;;;;;;;;5154895;27;20447;-72
2022/10/12 02:55:08;;;;;;;32.40;18.63;;;;;;;;;;5157835;27;20475;-71
2022/10/12 02:57:35;;;;;;;28.40;19.27;;;;;;;;;;5158358;27;20455;-71
2022/10/12 03:00:02;;;;;;;27.70;18.97;;;;;;;;;;5158414;27;20451;-71
2022/10/12 03:02:29;;;;;;;27.17;17.40;;;;;;;;;;5158416;27;20512;-71
2022/10/12 03:04:58;;;;;;;33.93;19.13;;;;;;;;;;5157673;27;20540;-71
2022/10/12 03:07:25;;;;;;;28.60;18.87;;;;;;;;;;5158438;27;20454;-71
2022/10/12 03:09:52;;;;;;;26.60;16.70;;;;;;;;;;5158103;27;20475;-71
2022/10/12 03:12:20;;;;;;;32.43;19.90;;;;;;;;;;5158029;27;20487;-71
2022/10/12 03:14:47;;;;;;;35.40;21.27;;;;;;;;;;5157768;27;20467;-71
2022/10/12 03:17:14;;;;;;;31.53;17.20;;;;;;;;;;5158177;27;20819;-71
2022/10/12 03:19:41;;;;;;;31.20;16.10;;;;;;;;;;5157873;27;20453;-71
2022/10/12 03:22:09;;;;;;;67.17;37.73;;;;;;;;;;5158209;27;20445;-71
2022/10/12 03:24:37;;;;;;;32.10;16.37;;;;;;;;;;5157669;27;20822;-71
2022/10/12 03:27:04;;;;;;;22.83;14.50;;;;;;;;;;5158013;27;20450;-71
2022/10/12 03:29:31;;;;;;;33.17;15.90;;;;;;;;;;5157830;27;20455;-71
2022/10/12 03:31:58;;;;;;;19.70;15.20;;;;;;;;;;5157861;27;20550;-71
2022/10/12 03:34:25;;;;;;;29.43;17.93;;;;;;;;;;5156943;27;20443;-71
2022/10/12 03:36:52;;;;;;;22.00;15.23;;;;;;;;;;5157898;27;20808;-71
2022/10/12 03:39:21;;;;;;;19.13;13.30;;;;;;;;;;5157654;27;20448;-71
2022/10/12 03:41:48;;;;;;;24.43;16.70;;;;;;;;;;5155409;27;20451;-70
2022/10/12 03:44:15;;;;;;;25.43;15.43;;;;;;;;;;5156752;27;20444;-71
2022/10/12 03:46:42;;;;;;;26.90;16.70;;;;;;;;;;5157673;27;20476;-70
2022/10/12 03:49:09;;;;;;;26.30;15.60;;;;;;;;;;5157677;27;20974;-71
2022/10/12 03:51:36;;;;;;;24.33;16.47;;;;;;;;;;5157339;27;20482;-71
2022/10/12 03:54:03;;;;;;;20.73;16.30;;;;;;;;;;5156866;27;20448;-70
2022/10/12 03:56:32;;;;;;;25.30;16.93;;;;;;;;;;5157605;27;20467;-71
2022/10/12 03:58:59;;;;;;;18.83;14.30;;;;;;;;;;5157291;27;20450;-71
2022/10/12 04:01:26;;;;;;;23.07;16.10;;;;;;;;;;5157296;27;20440;-71
2022/10/12 04:03:53;;;;;;;62.30;16.90;;;;;;;;;;5156573;27;21033;-70
2022/10/12 04:06:20;;;;;;;23.80;15.57;;;;;;;;;;5156748;27;20841;-71
2022/10/12 04:08:48;;;;;;;22.97;17.43;;;;;;;;;;5157094;27;20454;-71
2022/10/12 04:11:15;;;;;;;31.60;17.60;;;;;;;;;;5157082;27;20495;-71
2022/10/12 04:13:44;;;;;;;27.33;16.17;;;;;;;;;;5156481;27;20448;-71
2022/10/12 04:16:11;;;;;;;30.10;16.40;;;;;;;;;;5156719;27;20469;-71
2022/10/12 04:18:38;;;;;;;25.57;15.80;;;;;;;;;;5157257;27;20478;-71
2022/10/12 04:21:06;;;;;;;23.70;17.00;;;;;;;;;;5156923;27;20451;-71
2022/10/12 04:23:33;;;;;;;24.63;16.87;;;;;;;;;;5156588;27;20443;-71
2022/10/12 04:26:01;;;;;;;26.70;19.03;;;;;;;;;;5155505;27;20463;-71
2022/10/12 04:28:28;;;;;;;21.90;17.63;;;;;;;;;;5157139;27;20435;-70
2022/10/12 04:30:56;;;;;;;26.13;16.87;;;;;;;;;;5155031;27;20547;-71
2022/10/12 04:33:23;;;;;;;22.40;16.30;;;;;;;;;;5155542;27;20476;-71
2022/10/12 04:35:51;;;;;;;21.37;16.00;;;;;;;;;;5153868;27;20478;-71
2022/10/12 04:38:18;;;;;;;25.70;17.00;;;;;;;;;;5155832;27;20813;-71
2022/10/12 04:40:47;;;;;;;25.93;15.27;;;;;;;;;;5156071;27;21040;-71
2022/10/12 04:43:14;;;;;;;28.90;17.10;;;;;;;;;;5156398;27;21012;-71
2022/10/12 04:45:41;;;;;;;22.90;14.77;;;;;;;;;;5155420;27;20468;-71
2022/10/12 04:48:10;;;;;;;22.23;14.63;;;;;;;;;;5155228;27;20797;-71
2022/10/12 04:50:37;;;;;;;23.93;16.30;;;;;;;;;;5155894;27;20455;-71
2022/10/12 04:53:04;;;;;;;24.60;19.20;;;;;;;;;;5155854;27;20451;-71
2022/10/12 04:55:31;;;;;;;26.53;16.63;;;;;;;;;;5155493;27;20829;-71
2022/10/12 04:57:59;;;;;;;19.67;16.13;;;;;;;;;;5155806;27;20451;-71
2022/10/12 05:00:26;;;;;;;25.80;16.03;;;;;;;;;;5156174;27;20962;-71
2022/10/12 05:02:53;;;;;;;17.93;15.73;;;;;;;;;;5155978;27;20446;-71
2022/10/12 05:05:22;;;;;;;30.50;16.23;;;;;;;;;;5155488;27;20490;-71
2022/10/12 05:07:49;;;;;;;21.43;14.47;;;;;;;;;;5155637;27;20462;-71
2022/10/12 05:10:17;;;;;;;21.37;16.47;;;;;;;;;;5155936;27;20449;-71
2022/10/12 05:12:44;;;;;;;23.37;16.70;;;;;;;;;;5155351;27;20488;-71
2022/10/12 05:15:11;;;;;;;18.17;13.43;;;;;;;;;;5155479;27;20467;-71
2022/10/12 05:17:38;;;;;;;24.67;14.97;;;;;;;;;;5154825;27;20447;-70
2022/10/12 05:20:06;;;;;;;19.23;14.63;;;;;;;;;;5155983;27;20468;-70
2022/10/12 05:22:36;;;;;;;20.20;14.93;;;;;;;;;;5155287;27;20959;-71
2022/10/12 05:25:03;;;;;;;25.63;14.37;;;;;;;;;;5155038;27;20471;-70
2022/10/12 05:27:30;;;;;;;21.13;15.10;;;;;;;;;;5155554;27;20459;-70
2022/10/12 05:29:57;;;;;;;25.27;16.27;;;;;;;;;;5155602;27;20447;-70
2022/10/12 05:32:25;;;;;;;22.27;15.03;;;;;;;;;;5147461;27;21023;-70
2022/10/12 05:34:53;;;;;;;20.77;14.50;;;;;;;;;;5152823;27;20604;-71
2022/10/12 05:37:21;;;;;;;24.43;15.63;;;;;;;;;;5153458;27;20821;-70
2022/10/12 05:39:50;;;;;;;24.40;13.60;;;;;;;;;;5153160;27;20463;-70
2022/10/12 05:42:17;;;;;;;19.33;14.17;;;;;;;;;;5154235;27;20952;-71
2022/10/12 05:44:45;;;;;;;20.70;15.80;;;;;;;;;;5152676;27;20471;-71
2022/10/12 05:47:12;;;;;;;23.03;15.07;;;;;;;;;;5153352;27;20815;-71
2022/10/12 05:49:39;;;;;;;20.13;14.50;;;;;;;;;;5153624;27;20959;-71
2022/10/12 05:52:06;;;;;;;23.93;16.10;;;;;;;;;;5153689;27;20479;-71
2022/10/12 05:54:33;;;;;;;21.57;14.97;;;;;;;;;;5152866;27;20443;-70
2022/10/12 05:57:02;;;;;;;24.77;16.23;;;;;;;;;;5155009;27;20432;-70
2022/10/12 05:59:29;;;;;;;24.40;16.20;;;;;;;;;;5154746;27;20455;-70
2022/10/12 06:01:56;;;;;;;24.20;16.67;;;;;;;;;;5155098;27;20444;-70
2022/10/12 06:04:23;;;;;;;28.77;17.73;;;;;;;;;;5154322;27;20458;-70
2022/10/12 06:06:50;;;;;;;39.47;20.30;;;;;;;;;;5155049;27;20909;-71
2022/10/12 06:09:17;;;;;;;29.33;18.50;;;;;;;;;;5155114;27;20442;-71
2022/10/12 06:11:45;;;;;;;23.30;16.67;;;;;;;;;;5154733;27;20487;-71
2022/10/12 06:14:13;;;;;;;32.00;17.10;;;;;;;;;;5154770;27;20810;-71
2022/10/12 06:16:40;;;;;;;23.47;14.00;;;;;;;;;;5154857;27;20837;-71
2022/10/12 06:19:15;;;;;;;19.40;14.50;;;;;;;;;;5153888;27;20468;-71
2022/10/12 06:21:43;;;;;;;22.43;14.47;;;;;;;;;;5153834;27;20432;-71
2022/10/12 06:24:10;;;;;;;19.53;13.60;;;;;;;;;;5152829;27;20458;-71
2022/10/12 06:26:37;;;;;;;23.43;13.83;;;;;;;;;;5154962;27;20464;-71
2022/10/12 06:29:04;;;;;;;23.20;14.37;;;;;;;;;;5153838;27;20500;-71
2022/10/12 06:31:33;;;;;;;20.43;14.27;;;;;;;;;;5154405;27;20487;-71
2022/10/12 06:34:00;;;;;;;20.23;13.73;;;;;;;;;;5154472;27;20788;-71
2022/10/12 06:36:27;;;;;;;17.63;13.27;;;;;;;;;;5154444;27;20467;-71
2022/10/12 06:38:55;;;;;;;21.70;15.07;;;;;;;;;;5154570;27;20453;-71
2022/10/12 06:41:22;;;;;;;20.97;13.40;;;;;;;;;;5154546;27;20884;-71
2022/10/12 06:43:49;;;;;;;20.03;12.13;;;;;;;;;;5152556;27;20447;-71
2022/10/12 06:46:16;;;;;;;26.50;17.03;;;;;;;;;;5154608;27;20831;-71
2022/10/12 06:48:44;;;;;;;22.50;14.00;;;;;;;;;;5153900;27;20471;-71
2022/10/12 06:51:12;;;;;;;18.97;13.70;;;;;;;;;;5154634;27;20817;-71
2022/10/12 06:53:39;;;;;;;21.63;13.70;;;;;;;;;;5153856;27;20495;-71
2022/10/12 06:56:06;;;;;;;18.40;11.57;;;;;;;;;;5154538;27;20467;-71
2022/10/12 06:58:34;;;;;;;17.97;11.80;;;;;;;;;;5154114;27;20450;-71
2022/10/12 07:01:02;;;;;;;19.47;12.73;;;;;;;;;;5154186;27;20447;-71
2022/10/12 07:03:30;;;;;;;17.30;11.53;;;;;;;;;;5153091;27;20496;-71
2022/10/12 07:06:06;;;;;;;17.00;11.70;;;;;;;;;;5152382;27;20566;-71
2022/10/12 07:08:33;;;;;;;20.87;13.70;;;;;;;;;;5154180;27;20956;-71
2022/10/12 07:11:01;;;;;;;15.70;12.00;;;;;;;;;;5154138;27;20451;-71
2022/10/12 07:13:28;;;;;;;21.57;11.93;;;;;;;;;;5153580;27;20483;-71
2022/10/12 07:15:55;;;;;;;14.57;12.73;;;;;;;;;;5154320;27;20474;-71
2022/10/12 07:18:22;;;;;;;16.70;12.20;;;;;;;;;;5154110;27;20496;-71
2022/10/12 07:20:50;;;;;;;17.23;12.67;;;;;;;;;;5154117;27;20451;-71
2022/10/12 07:23:18;;;;;;;15.70;12.73;;;;;;;;;;5154276;27;20443;-71
2022/10/12 07:25:48;;;;;;;15.57;11.77;;;;;;;;;;5153376;27;20472;-71
2022/10/12 07:28:15;;;;;;;19.27;13.03;;;;;;;;;;5154441;27;20451;-71
2022/10/12 07:30:42;;;;;;;18.10;13.67;;;;;;;;;;5154155;27;20953;-71
2022/10/12 07:33:10;;;;;;;22.23;14.40;;;;;;;;;;5154001;27;20490;-71
2022/10/12 07:35:37;;;;;;;16.87;11.67;;;;;;;;;;5153151;27;20467;-71
2022/10/12 07:38:04;;;;;;;20.00;12.30;;;;;;;;;;5153965;27;20452;-71
2022/10/12 07:40:33;;;;;;;19.00;13.37;;;;;;;;;;5157171;27;20453;-71
2022/10/12 07:43:00;;;;;;;14.27;11.93;;;;;;;;;;5156045;27;20443;-71
2022/10/12 07:45:28;;;;;;;13.07;11.27;;;;;;;;;;5157054;27;20475;-71
2022/10/12 07:47:55;;;;;;;14.43;11.10;;;;;;;;;;5157864;27;20932;-71
2022/10/12 07:50:24;;;;;;;18.40;12.80;;;;;;;;;;5157845;27;20813;-71
2022/10/12 07:52:51;;;;;;;15.50;11.03;;;;;;;;;;5157274;27;20487;-71
2022/10/12 07:55:18;;;;;;;12.90;11.23;;;;;;;;;;5157041;27;20463;-71
2022/10/12 07:57:46;;;;;;;20.37;12.43;;;;;;;;;;5157453;27;20477;-71
2022/10/12 08:00:14;;;;;;;14.13;11.53;;;;;;;;;;5157321;27;20504;-71
2022/10/12 08:02:41;;;;;;;14.17;11.53;;;;;;;;;;5157655;27;20933;-72
2022/10/12 08:05:09;;;;;;;17.97;12.10;;;;;;;;;;5156570;27;20483;-71
2022/10/12 08:07:36;;;;;;;17.03;12.33;;;;;;;;;;5157259;27;20443;-71
2022/10/12 08:10:03;;;;;;;19.20;11.50;;;;;;;;;;5157427;27;20448;-71
2022/10/12 08:12:30;;;;;;;14.10;11.90;;;;;;;;;;5156847;27;20491;-72
2022/10/12 08:14:58;;;;;;;14.13;12.63;;;;;;;;;;5156747;27;20463;-71
2022/10/12 08:17:26;;;;;;;13.87;11.50;;;;;;;;;;5156943;27;20452;-71
2022/10/12 08:19:53;;;;;;;17.10;12.43;;;;;;;;;;5157045;27;20964;-72
2022/10/12 08:22:20;;;;;;;16.37;14.20;;;;;;;;;;5157299;27;20480;-72
2022/10/12 08:24:47;;;;;;;15.63;12.10;;;;;;;;;;5156205;27;20479;-71
2022/10/12 08:27:14;;;;;;;22.53;13.57;;;;;;;;;;5156918;27;20552;-71
2022/10/12 08:29:41;;;;;;;20.60;13.87;;;;;;;;;;5156775;27;20443;-71
2022/10/12 08:32:10;;;;;;;18.73;13.70;;;;;;;;;;5156470;27;20479;-71
2022/10/12 08:34:37;;;;;;;21.17;14.37;;;;;;;;;;5156401;27;20455;-71
2022/10/12 08:37:04;;;;;;;19.10;14.00;;;;;;;;;;5157104;27;20948;-71
2022/10/12 08:39:34;;;;;;;28.07;16.50;;;;;;;;;;5156611;27;20447;-71
2022/10/12 08:42:08;;;;;;;23.23;14.70;;;;;;;;;;5156553;27;20436;-71
2022/10/12 08:44:53;;;;;;;21.20;15.43;;;;;;;;;;5155993;27;20436;-71
2022/10/12 08:47:25;;;;;;;21.73;13.00;;;;;;;;;;5156281;27;20454;-71
2022/10/12 08:49:52;;;;;;;17.70;13.77;;;;;;;;;;5156531;27;20492;-71
2022/10/12 08:52:23;;;;;;;26.90;17.30;;;;;;;;;;5155643;27;20490;-71
2022/10/12 08:54:50;;;;;;;16.67;13.50;;;;;;;;;;5155612;27;20467;-71
2022/10/12 08:57:18;;;;;;;21.67;14.37;;;;;;;;;;5156357;27;20440;-71
2022/10/12 08:59:46;;;;;;;20.03;13.50;;;;;;;;;;5156234;27;20560;-71
2022/10/12 09:02:22;;;;;;;20.87;13.93;;;;;;;;;;5156426;27;20443;-71
2022/10/12 09:04:54;;;;;;;16.73;13.07;;;;;;;;;;5156004;27;20471;-71
2022/10/12 09:07:26;;;;;;;18.87;13.53;;;;;;;;;;5156421;27;20432;-71
2022/10/12 09:09:59;;;;;;;20.30;14.87;;;;;;;;;;5156140;27;20452;-71
2022/10/12 09:12:33;;;;;;;17.53;13.80;;;;;;;;;;5155742;27;20487;-71
2022/10/12 09:15:03;;;;;;;27.33;18.90;;;;;;;;;;5155476;27;20478;-71
2022/10/12 09:17:31;;;;;;;26.67;17.37;;;;;;;;;;5156180;27;20466;-71
2022/10/12 09:20:05;;;;;;;18.17;13.17;;;;;;;;;;5156015;27;20985;-71
2022/10/12 09:22:34;;;;;;;20.03;14.97;;;;;;;;;;5155639;27;20455;-71
2022/10/12 09:25:02;;;;;;;18.30;13.63;;;;;;;;;;5155055;27;20484;-71
2022/10/12 09:27:31;;;;;;;15.77;12.03;;;;;;;;;;5155640;27;20964;-71
2022/10/12 09:29:59;;;;;;;18.13;13.23;;;;;;;;;;5155686;27;20492;-71
2022/10/12 09:32:36;;;;;;;25.87;14.57;;;;;;;;;;5155688;27;20479;-71
2022/10/12 09:35:06;;;;;;;17.73;13.93;;;;;;;;;;5154975;27;20482;-71
2022/10/12 09:37:35;;;;;;;19.77;13.87;;;;;;;;;;5155551;27;20428;-71
2022/10/12 09:40:03;;;;;;;22.17;15.87;;;;;;;;;;5155771;27;20455;-71
2022/10/12 09:42:30;;;;;;;16.90;13.40;;;;;;;;;;5155394;27;20902;-71
2022/10/12 09:45:01;;;;;;;18.60;12.33;;;;;;;;;;5154763;27;20471;-71
2022/10/12 09:47:30;;;;;;;14.67;11.90;;;;;;;;;;5155666;27;20436;-71
2022/10/12 09:49:58;;;;;;;14.27;12.00;;;;;;;;;;5155432;27;20455;-71
2022/10/12 09:52:28;;;;;;;15.93;13.00;;;;;;;;;;5155187;27;20498;-71
2022/10/12 09:54:57;;;;;;;13.37;10.70;;;;;;;;;;5154528;27;20535;-71
2022/10/12 09:57:25;;;;;;;22.27;11.47;;;;;;;;;;5155449;27;20458;-71
2022/10/12 09:59:53;;;;;;;16.00;11.23;;;;;;;;;;5154938;27;20453;-71
2022/10/12 10:02:20;;;;;;;16.10;14.30;;;;;;;;;;5154247;27;20454;-71
2022/10/12 10:04:48;;;;;;;14.27;12.30;;;;;;;;;;5154179;27;20565;-71
2022/10/12 10:07:28;;;;;;;18.33;11.70;;;;;;;;;;5154977;27;20444;-71
2022/10/12 10:10:09;;;;;;;15.40;9.73;;;;;;;;;;5154989;27;20467;-72
2022/10/12 10:12:36;;;;;;;12.70;10.33;;;;;;;;;;5154652;27;20462;-71
2022/10/12 10:15:04;;;;;;;17.03;10.07;;;;;;;;;;5154284;27;20463;-71
2022/10/12 10:17:33;;;;;;;18.33;13.03;;;;;;;;;;5154779;27;20448;-71
2022/10/12 10:20:02;;;;;;;17.17;11.37;;;;;;;;;;5155019;27;20496;-71
2022/10/12 10:22:31;;;;;;;17.70;10.20;;;;;;;;;;5154802;27;20454;-71
2022/10/12 10:25:00;;;;;;;13.10;10.93;;;;;;;;;;5153955;27;20472;-71
2022/10/12 10:27:29;;;;;;;15.27;10.90;;;;;;;;;;5154681;27;20454;-71
2022/10/12 10:30:08;;;;;;;15.10;10.90;;;;;;;;;;5154780;27;20944;-71
2022/10/12 10:32:35;;;;;;;13.17;11.77;;;;;;;;;;5154445;27;20451;-71
2022/10/12 10:35:04;;;;;;;16.80;12.33;;;;;;;;;;5153884;27;20464;-71
2022/10/12 10:37:33;;;;;;;15.90;11.87;;;;;;;;;;5154445;27;20453;-71
2022/10/12 10:40:01;;;;;;;19.67;13.63;;;;;;;;;;5154543;27;20466;-71
2022/10/12 10:42:30;;;;;;;15.57;12.00;;;;;;;;;;5154779;27;20467;-71
2022/10/12 10:44:58;;;;;;;19.90;13.20;;;;;;;;;;5153710;27;20551;-71
2022/10/12 10:47:26;;;;;;;15.97;12.10;;;;;;;;;;5154505;27;20962;-71
2022/10/12 10:49:56;;;;;;;17.73;11.80;;;;;;;;;;5154663;27;20435;-71
2022/10/12 10:52:24;;;;;;;16.30;11.63;;;;;;;;;;5155131;27;20493;-71
2022/10/12 10:55:06;;;;;;;19.10;13.73;;;;;;;;;;5153979;27;20988;-71
2022/10/12 10:57:34;;;;;;;18.93;12.77;;;;;;;;;;5154553;27;20436;-71
2022/10/12 11:00:03;;;;;;;16.03;12.17;;;;;;;;;;5154531;27;20810;-71
2022/10/12 11:02:33;;;;;;;16.80;13.17;;;;;;;;;;5154435;27;20530;-71
2022/10/12 11:05:04;;;;;;;12.10;10.63;;;;;;;;;;5153980;27;20893;-71
2022/10/12 11:07:34;;;;;;;17.20;12.37;;;;;;;;;;5154241;27;20518;-71
2022/10/12 11:10:04;;;;;;;14.37;12.40;;;;;;;;;;5154364;27;20446;-71
2022/10/12 11:12:32;;;;;;;17.43;11.73;;;;;;;;;;5154167;27;20455;-71
2022/10/12 11:15:05;;;;;;;14.40;11.43;;;;;;;;;;5156452;27;20491;-71
2022/10/12 11:17:33;;;;;;;21.23;13.00;;;;;;;;;;5158496;27;20462;-71
2022/10/12 11:20:06;;;;;;;20.77;11.33;;;;;;;;;;5158136;27;20457;-71
2022/10/12 11:22:39;;;;;;;14.70;12.20;;;;;;;;;;5158255;27;20455;-71
2022/10/12 11:25:09;;;;;;;16.10;11.33;;;;;;;;;;5157382;27;21014;-71
2022/10/12 11:27:37;;;;;;;19.20;13.00;;;;;;;;;;5158024;27;20466;-71
2022/10/12 11:30:07;;;;;;;20.13;11.73;;;;;;;;;;5158507;27;21048;-72
2022/10/12 11:32:38;;;;;;;16.37;12.43;;;;;;;;;;5157920;27;20451;-71
2022/10/12 11:35:06;;;;;;;18.53;14.57;;;;;;;;;;5157220;27;20501;-71
2022/10/12 11:37:36;;;;;;;27.40;14.27;;;;;;;;;;5157622;27;20458;-71
2022/10/12 11:40:05;;;;;;;21.37;14.17;;;;;;;;;;5158021;27;20459;-71
2022/10/12 11:42:37;;;;;;;24.63;15.63;;;;;;;;;;5158053;27;20450;-71
2022/10/12 11:45:06;;;;;;;16.00;13.53;;;;;;;;;;5157152;27;20470;-71
2022/10/12 11:47:37;;;;;;;16.00;12.47;;;;;;;;;;5157558;27;20539;-71
2022/10/12 11:50:06;;;;;;;33.60;24.47;;;;;;;;;;5157539;27;20955;-71
2022/10/12 11:52:36;;;;;;;19.20;14.00;;;;;;;;;;5157777;27;20866;-71
2022/10/12 11:55:12;;;;;;;27.37;19.87;;;;;;;;;;5157132;27;20494;-71
2022/10/12 11:57:41;;;;;;;36.53;24.50;;;;;;;;;;5157695;27;20438;-71
2022/10/12 12:00:17;;;;;;;134.97;60.90;;;;;;;;;;5157677;27;20810;-71
2022/10/12 12:02:47;;;;;;;23.40;15.40;;;;;;;;;;5157661;27;20447;-71
2022/10/12 12:05:14;;;;;;;19.63;13.77;;;;;;;;;;5157058;27;20803;-71
2022/10/12 12:07:43;;;;;;;15.60;12.33;;;;;;;;;;5157480;27;20823;-71
2022/10/12 12:10:33;;;;;;;21.30;15.63;;;;;;;;;;5157184;27;20447;-71
2022/10/12 12:13:18;;;;;;;18.30;12.67;;;;;;;;;;5157210;27;20854;-71
2022/10/12 12:16:13;;;;;;;22.70;12.37;;;;;;;;;;5156537;27;20483;-71
2022/10/12 12:18:55;;;;;;;18.67;12.60;;;;;;;;;;5156864;27;20452;-71
2022/10/12 12:21:22;;;;;;;17.63;11.07;;;;;;;;;;5156108;27;20444;-71
2022/10/12 12:23:52;;;;;;;26.93;12.10;;;;;;;;;;5156093;27;20436;-71
2022/10/12 12:26:20;;;;;;;17.00;11.70;;;;;;;;;;5156169;27;20806;-71
2022/10/12 12:28:50;;;;;;;21.30;17.60;;;;;;;;;;5157026;27;20455;-71
2022/10/12 12:31:18;;;;;;;29.67;20.77;;;;;;;;;;5157035;27;20538;-71
2022/10/12 12:33:47;;;;;;;25.47;18.27;;;;;;;;;;5156012;27;20483;-71
2022/10/12 12:36:16;;;;;;;21.30;18.67;;;;;;;;;;5156852;27;20463;-71
2022/10/12 12:38:48;;;;;;;13.00;10.53;;;;;;;;;;5156690;27;20452;-71
2022/10/12 12:41:16;;;;;;;17.33;13.80;;;;;;;;;;5157013;27;20454;-71
2022/10/12 12:44:01;;;;;;;13.27;9.03;;;;;;;;;;5156307;27;20448;-71
2022/10/12 12:46:47;;;;;;;14.60;10.27;;;;;;;;;;5156592;27;20460;-71
2022/10/12 12:49:27;;;;;;;23.60;19.70;;;;;;;;;;5156507;27;20454;-71
2022/10/12 12:51:56;;;;;;;15.97;11.20;;;;;;;;;;5156692;27;20434;-71
2022/10/12 12:54:24;;;;;;;10.73;9.63;;;;;;;;;;5155557;27;20490;-71
2022/10/12 12:57:10;;;;;;;11.13;8.80;;;;;;;;;;5156269;27;20452;-71
2022/10/12 13:00:03;;;;;;;10.37;8.80;;;;;;;;;;5156130;27;20447;-71
2022/10/12 13:02:44;;;;;;;17.60;9.53;;;;;;;;;;5156538;27;20439;-71
2022/10/12 13:05:26;;;;;;;14.63;8.27;;;;;;;;;;5155314;27;20467;-71
2022/10/12 13:07:59;;;;;;;11.00;9.87;;;;;;;;;;5156121;27;20447;-71
2022/10/12 13:10:30;;;;;;;20.57;13.67;;;;;;;;;;5155972;27;20451;-71
2022/10/12 13:13:02;;;;;;;11.77;8.57;;;;;;;;;;5156009;27;20464;-71
2022/10/12 13:15:35;;;;;;;15.93;12.47;;;;;;;;;;5155195;27;20555;-72
2022/10/12 13:18:09;;;;;;;21.73;10.20;;;;;;;;;;5155992;27;20474;-71
2022/10/12 13:20:39;;;;;;;20.77;9.10;;;;;;;;;;5156112;27;20424;-71
2022/10/12 13:23:07;;;;;;;10.20;8.83;;;;;;;;;;5156207;27;20440;-71
2022/10/12 13:25:36;;;;;;;17.33;9.37;;;;;;;;;;5154997;27;20468;-71
2022/10/12 13:28:06;;;;;;;24.90;9.87;;;;;;;;;;5155645;27;20875;-71
2022/10/12 13:30:36;;;;;;;14.77;9.90;;;;;;;;;;5155557;27;20447;-71
2022/10/12 13:33:08;;;;;;;15.80;9.23;;;;;;;;;;5155579;27;20432;-71
2022/10/12 13:35:38;;;;;;;11.23;8.17;;;;;;;;;;5155065;27;20494;-71
2022/10/12 13:38:18;;;;;;;25.10;10.07;;;;;;;;;;5155380;27;20446;-71
2022/10/12 13:40:50;;;;;;;16.30;8.87;;;;;;;;;;5155410;27;20435;-71
2022/10/12 13:43:26;;;;;;;15.40;8.63;;;;;;;;;;5155721;27;20791;-71
2022/10/12 13:45:53;;;;;;;9.67;8.00;;;;;;;;;;5155191;27;20467;-71
2022/10/12 13:48:22;;;;;;;10.03;8.20;;;;;;;;;;5155133;27;20457;-71
2022/10/12 13:50:52;;;;;;;10.17;7.70;;;;;;;;;;5155250;27;20444;-71
2022/10/12 13:53:21;;;;;;;12.83;8.50;;;;;;;;;;5155282;27;20451;-71
2022/10/12 13:55:55;;;;;;;12.70;8.30;;;;;;;;;;5154522;27;20490;-71
2022/10/12 13:58:24;;;;;;;17.80;8.03;;;;;;;;;;5155432;27;20918;-71
2022/10/12 14:00:52;;;;;;;23.87;15.30;;;;;;;;;;5155266;27;20448;-71
2022/10/12 14:03:24;;;;;;;20.73;11.77;;;;;;;;;;5155183;27;20788;-71
2022/10/12 14:05:52;;;;;;;11.50;9.47;;;;;;;;;;5154356;27;20478;-71
2022/10/12 14:08:23;;;;;;;16.67;10.23;;;;;;;;;;5154896;27;20466;-71
2022/10/12 14:10:51;;;;;;;11.80;8.20;;;;;;;;;;5154791;27;20516;-71
2022/10/12 14:13:22;;;;;;;11.63;8.10;;;;;;;;;;5154762;27;20490;-71
2022/10/12 14:15:49;;;;;;;13.63;8.87;;;;;;;;;;5154391;27;20491;-71
2022/10/12 14:18:33;;;;;;;10.23;9.10;;;;;;;;;;5154948;27;20813;-71
2022/10/12 14:21:08;;;;;;;11.37;9.40;;;;;;;;;;5154923;27;20511;-71
2022/10/12 14:23:36;;;;;;;12.20;9.87;;;;;;;;;;5153977;27;20451;-71
2022/10/12 14:26:03;;;;;;;13.77;10.00;;;;;;;;;;5154766;27;20976;-71
2022/10/12 14:28:34;;;;;;;10.43;9.33;;;;;;;;;;5154694;27;20447;-71
2022/10/12 14:31:01;;;;;;;13.37;10.83;;;;;;;;;;5154836;27;20956;-71